sensor_id;sensor_type;location;lat;lon;timestamp;P1;durP1;ratioP1;P2;durP2;ratioP2
53714;SDS011;39608;55.630;37.864;2023-04-24T00:03:21;25.85;;;7.47;;
53714;SDS011;39608;55.630;37.864;2023-04-24T00:08:23;16.92;;;5.93;;
53714;SDS011;39608;55.630;37.864;2023-04-24T00:13:27;13.88;;;5.30;;
53714;SDS011;39608;55.630;37.864;2023-04-24T00:18:29;20.55;;;6.05;;
53714;SDS011;39608;55.630;37.864;2023-04-24T00:23:31;18.20;;;5.53;;
53714;SDS011;39608;55.630;37.864;2023-04-24T00:28:35;13.35;;;4.70;;
53714;SDS011;39608;55.630;37.864;2023-04-24T00:33:37;10.00;;;4.13;;
53714;SDS011;39608;55.630;37.864;2023-04-24T00:38:39;12.18;;;4.25;;
53714;SDS011;39608;55.630;37.864;2023-04-24T00:43:42;10.57;;;4.28;;
53714;SDS011;39608;55.630;37.864;2023-04-24T00:48:45;6.43;;;3.78;;
53714;SDS011;39608;55.630;37.864;2023-04-24T00:53:47;10.65;;;3.85;;
53714;SDS011;39608;55.630;37.864;2023-04-24T00:58:51;8.13;;;3.70;;
53714;SDS011;39608;55.630;37.864;2023-04-24T01:03:53;21.00;;;3.70;;
53714;SDS011;39608;55.630;37.864;2023-04-24T01:08:56;11.30;;;4.35;;
53714;SDS011;39608;55.630;37.864;2023-04-24T01:14:02;14.23;;;4.28;;
53714;SDS011;39608;55.630;37.864;2023-04-24T01:19:04;19.80;;;4.38;;
53714;SDS011;39608;55.630;37.864;2023-04-24T01:24:08;10.00;;;4.80;;
53714;SDS011;39608;55.630;37.864;2023-04-24T01:29:10;13.85;;;5.57;;
53714;SDS011;39608;55.630;37.864;2023-04-24T01:34:13;13.07;;;5.72;;
53714;SDS011;39608;55.630;37.864;2023-04-24T01:39:18;11.23;;;6.15;;
53714;SDS011;39608;55.630;37.864;2023-04-24T01:44:23;18.40;;;6.18;;
53714;SDS011;39608;55.630;37.864;2023-04-24T01:49:26;21.38;;;7.45;;
53714;SDS011;39608;55.630;37.864;2023-04-24T01:54:29;20.98;;;7.28;;
53714;SDS011;39608;55.630;37.864;2023-04-24T01:59:31;21.48;;;6.75;;
53714;SDS011;39608;55.630;37.864;2023-04-24T02:04:36;16.20;;;6.05;;
53714;SDS011;39608;55.630;37.864;2023-04-24T02:09:40;20.60;;;6.47;;
53714;SDS011;39608;55.630;37.864;2023-04-24T02:14:42;20.92;;;7.10;;
53714;SDS011;39608;55.630;37.864;2023-04-24T02:19:45;18.17;;;6.70;;
53714;SDS011;39608;55.630;37.864;2023-04-24T02:24:48;18.25;;;7.28;;
53714;SDS011;39608;55.630;37.864;2023-04-24T02:29:50;17.63;;;7.95;;
53714;SDS011;39608;55.630;37.864;2023-04-24T02:34:52;20.38;;;9.55;;
53714;SDS011;39608;55.630;37.864;2023-04-24T02:39:56;18.80;;;7.38;;
53714;SDS011;39608;55.630;37.864;2023-04-24T02:44:58;13.85;;;7.15;;
53714;SDS011;39608;55.630;37.864;2023-04-24T02:50:00;20.85;;;7.57;;
53714;SDS011;39608;55.630;37.864;2023-04-24T02:55:06;28.60;;;7.55;;
53714;SDS011;39608;55.630;37.864;2023-04-24T03:00:09;16.17;;;7.75;;
53714;SDS011;39608;55.630;37.864;2023-04-24T03:05:12;27.42;;;8.07;;
53714;SDS011;39608;55.630;37.864;2023-04-24T03:10:15;18.88;;;7.95;;
53714;SDS011;39608;55.630;37.864;2023-04-24T03:15:17;12.10;;;6.72;;
53714;SDS011;39608;55.630;37.864;2023-04-24T03:20:20;21.92;;;7.47;;
53714;SDS011;39608;55.630;37.864;2023-04-24T03:25:23;17.70;;;7.25;;
53714;SDS011;39608;55.630;37.864;2023-04-24T03:30:26;15.82;;;7.78;;
53714;SDS011;39608;55.630;37.864;2023-04-24T03:35:28;18.48;;;8.45;;
53714;SDS011;39608;55.630;37.864;2023-04-24T03:40:31;13.55;;;7.85;;
53714;SDS011;39608;55.630;37.864;2023-04-24T03:45:33;18.38;;;7.25;;
53714;SDS011;39608;55.630;37.864;2023-04-24T03:50:35;19.02;;;8.00;;
53714;SDS011;39608;55.630;37.864;2023-04-24T03:55:39;22.33;;;7.38;;
53714;SDS011;39608;55.630;37.864;2023-04-24T04:00:41;17.98;;;7.60;;
53714;SDS011;39608;55.630;37.864;2023-04-24T04:05:44;14.73;;;7.82;;
53714;SDS011;39608;55.630;37.864;2023-04-24T04:10:48;24.33;;;7.53;;
53714;SDS011;39608;55.630;37.864;2023-04-24T04:15:50;16.40;;;7.45;;
53714;SDS011;39608;55.630;37.864;2023-04-24T04:20:52;18.45;;;7.35;;
53714;SDS011;39608;55.630;37.864;2023-04-24T04:25:55;18.88;;;7.13;;
53714;SDS011;39608;55.630;37.864;2023-04-24T04:30:57;14.85;;;7.25;;
53714;SDS011;39608;55.630;37.864;2023-04-24T04:35:59;13.48;;;6.88;;
53714;SDS011;39608;55.630;37.864;2023-04-24T04:41:03;18.70;;;6.57;;
53714;SDS011;39608;55.630;37.864;2023-04-24T04:46:05;10.57;;;5.38;;
53714;SDS011;39608;55.630;37.864;2023-04-24T04:51:08;9.88;;;5.72;;
53714;SDS011;39608;55.630;37.864;2023-04-24T04:56:12;14.57;;;5.50;;
53714;SDS011;39608;55.630;37.864;2023-04-24T05:01:14;12.38;;;6.00;;
53714;SDS011;39608;55.630;37.864;2023-04-24T05:06:16;15.02;;;7.22;;
53714;SDS011;39608;55.630;37.864;2023-04-24T05:11:19;17.40;;;7.63;;
53714;SDS011;39608;55.630;37.864;2023-04-24T05:16:21;19.40;;;8.38;;
53714;SDS011;39608;55.630;37.864;2023-04-24T05:21:23;25.35;;;8.48;;
53714;SDS011;39608;55.630;37.864;2023-04-24T05:26:27;25.60;;;8.60;;
53714;SDS011;39608;55.630;37.864;2023-04-24T05:31:29;17.88;;;8.30;;
53714;SDS011;39608;55.630;37.864;2023-04-24T05:36:31;21.55;;;8.05;;
53714;SDS011;39608;55.630;37.864;2023-04-24T05:41:34;20.35;;;6.85;;
53714;SDS011;39608;55.630;37.864;2023-04-24T05:46:36;17.20;;;7.15;;
53714;SDS011;39608;55.630;37.864;2023-04-24T05:51:38;15.43;;;6.35;;
53714;SDS011;39608;55.630;37.864;2023-04-24T05:56:42;15.80;;;7.20;;
53714;SDS011;39608;55.630;37.864;2023-04-24T06:01:45;17.55;;;5.93;;
53714;SDS011;39608;55.630;37.864;2023-04-24T06:06:47;23.23;;;5.00;;
53714;SDS011;39608;55.630;37.864;2023-04-24T06:11:52;19.25;;;6.25;;
53714;SDS011;39608;55.630;37.864;2023-04-24T06:16:54;22.30;;;5.70;;
53714;SDS011;39608;55.630;37.864;2023-04-24T06:21:57;13.23;;;5.50;;
53714;SDS011;39608;55.630;37.864;2023-04-24T06:27:00;11.70;;;4.93;;
53714;SDS011;39608;55.630;37.864;2023-04-24T06:32:02;29.02;;;5.50;;
53714;SDS011;39608;55.630;37.864;2023-04-24T06:37:04;18.70;;;4.93;;
53714;SDS011;39608;55.630;37.864;2023-04-24T06:42:08;10.10;;;4.47;;
53714;SDS011;39608;55.630;37.864;2023-04-24T06:47:10;10.77;;;3.80;;
53714;SDS011;39608;55.630;37.864;2023-04-24T06:52:13;19.33;;;4.80;;
53714;SDS011;39608;55.630;37.864;2023-04-24T06:57:17;19.83;;;4.50;;
53714;SDS011;39608;55.630;37.864;2023-04-24T07:02:19;12.80;;;4.15;;
53714;SDS011;39608;55.630;37.864;2023-04-24T07:07:21;12.25;;;3.67;;
53714;SDS011;39608;55.630;37.864;2023-04-24T07:12:25;21.58;;;3.95;;
53714;SDS011;39608;55.630;37.864;2023-04-24T07:17:27;6.60;;;2.90;;
53714;SDS011;39608;55.630;37.864;2023-04-24T07:22:29;9.60;;;3.25;;
53714;SDS011;39608;55.630;37.864;2023-04-24T07:27:33;15.10;;;3.78;;
53714;SDS011;39608;55.630;37.864;2023-04-24T07:32:36;11.35;;;3.00;;
53714;SDS011;39608;55.630;37.864;2023-04-24T07:37:38;9.60;;;2.58;;
53714;SDS011;39608;55.630;37.864;2023-04-24T07:42:47;7.63;;;2.80;;
53714;SDS011;39608;55.630;37.864;2023-04-24T07:47:50;7.70;;;2.65;;
53714;SDS011;39608;55.630;37.864;2023-04-24T07:52:52;8.02;;;3.08;;
53714;SDS011;39608;55.630;37.864;2023-04-24T07:57:55;6.82;;;2.80;;
53714;SDS011;39608;55.630;37.864;2023-04-24T08:02:57;4.15;;;2.72;;
53714;SDS011;39608;55.630;37.864;2023-04-24T08:07:59;4.68;;;3.00;;
53714;SDS011;39608;55.630;37.864;2023-04-24T08:13:03;8.60;;;3.15;;
53714;SDS011;39608;55.630;37.864;2023-04-24T08:18:05;8.30;;;3.33;;
53714;SDS011;39608;55.630;37.864;2023-04-24T08:23:08;4.78;;;3.08;;
53714;SDS011;39608;55.630;37.864;2023-04-24T08:28:11;5.20;;;3.00;;
53714;SDS011;39608;55.630;37.864;2023-04-24T08:33:20;4.15;;;2.83;;
53714;SDS011;39608;55.630;37.864;2023-04-24T08:38:22;13.30;;;3.42;;
53714;SDS011;39608;55.630;37.864;2023-04-24T08:43:25;5.05;;;2.55;;
53714;SDS011;39608;55.630;37.864;2023-04-24T08:48:28;4.50;;;2.67;;
53714;SDS011;39608;55.630;37.864;2023-04-24T08:53:30;9.93;;;3.15;;
53714;SDS011;39608;55.630;37.864;2023-04-24T08:58:35;9.90;;;3.60;;
53714;SDS011;39608;55.630;37.864;2023-04-24T09:03:38;8.43;;;2.63;;
53714;SDS011;39608;55.630;37.864;2023-04-24T09:08:41;6.28;;;2.97;;
53714;SDS011;39608;55.630;37.864;2023-04-24T09:13:46;4.95;;;2.88;;
53714;SDS011;39608;55.630;37.864;2023-04-24T09:18:49;4.78;;;2.83;;
53714;SDS011;39608;55.630;37.864;2023-04-24T09:23:58;4.07;;;2.80;;
53714;SDS011;39608;55.630;37.864;2023-04-24T09:29:02;7.05;;;2.92;;
53714;SDS011;39608;55.630;37.864;2023-04-24T09:34:05;4.50;;;2.80;;
53714;SDS011;39608;55.630;37.864;2023-04-24T09:39:09;5.53;;;3.10;;
53714;SDS011;39608;55.630;37.864;2023-04-24T09:44:15;7.75;;;3.17;;
53714;SDS011;39608;55.630;37.864;2023-04-24T09:49:21;13.75;;;3.10;;
53714;SDS011;39608;55.630;37.864;2023-04-24T09:54:24;4.78;;;2.88;;
53714;SDS011;39608;55.630;37.864;2023-04-24T09:59:28;4.20;;;2.92;;
53714;SDS011;39608;55.630;37.864;2023-04-24T10:04:30;18.10;;;3.50;;
53714;SDS011;39608;55.630;37.864;2023-04-24T10:09:32;7.38;;;2.95;;
53714;SDS011;39608;55.630;37.864;2023-04-24T10:14:36;5.60;;;2.65;;
53714;SDS011;39608;55.630;37.864;2023-04-24T10:19:38;12.50;;;2.70;;
53714;SDS011;39608;55.630;37.864;2023-04-24T10:24:43;9.82;;;2.65;;
53714;SDS011;39608;55.630;37.864;2023-04-24T10:29:47;6.45;;;2.67;;
53714;SDS011;39608;55.630;37.864;2023-04-24T10:34:51;15.05;;;2.70;;
53714;SDS011;39608;55.630;37.864;2023-04-24T10:39:55;8.38;;;2.30;;
53714;SDS011;39608;55.630;37.864;2023-04-24T10:44:58;4.10;;;2.33;;
53714;SDS011;39608;55.630;37.864;2023-04-24T10:50:04;5.25;;;2.53;;
53714;SDS011;39608;55.630;37.864;2023-04-24T10:55:40;7.32;;;2.70;;
53714;SDS011;39608;55.630;37.864;2023-04-24T11:00:54;8.60;;;2.50;;
53714;SDS011;39608;55.630;37.864;2023-04-24T11:05:58;11.85;;;2.58;;
53714;SDS011;39608;55.630;37.864;2023-04-24T11:11:08;5.63;;;2.53;;
53714;SDS011;39608;55.630;37.864;2023-04-24T11:16:13;7.35;;;2.30;;
53714;SDS011;39608;55.630;37.864;2023-04-24T11:21:16;5.28;;;2.10;;
53714;SDS011;39608;55.630;37.864;2023-04-24T11:26:21;4.00;;;2.00;;
53714;SDS011;39608;55.630;37.864;2023-04-24T11:31:34;3.90;;;2.05;;
53714;SDS011;39608;55.630;37.864;2023-04-24T11:36:37;6.30;;;2.25;;
53714;SDS011;39608;55.630;37.864;2023-04-24T11:41:42;5.97;;;2.65;;
53714;SDS011;39608;55.630;37.864;2023-04-24T11:46:44;4.22;;;2.55;;
53714;SDS011;39608;55.630;37.864;2023-04-24T11:51:46;3.00;;;2.13;;
53714;SDS011;39608;55.630;37.864;2023-04-24T11:56:49;5.90;;;1.92;;
53714;SDS011;39608;55.630;37.864;2023-04-24T12:01:51;6.63;;;2.17;;
53714;SDS011;39608;55.630;37.864;2023-04-24T12:12:03;6.00;;;2.20;;
53714;SDS011;39608;55.630;37.864;2023-04-24T12:17:08;7.97;;;1.77;;
53714;SDS011;39608;55.630;37.864;2023-04-24T12:22:10;3.80;;;1.88;;
53714;SDS011;39608;55.630;37.864;2023-04-24T12:27:19;10.70;;;2.25;;
53714;SDS011;39608;55.630;37.864;2023-04-24T12:32:22;9.88;;;2.22;;
53714;SDS011;39608;55.630;37.864;2023-04-24T12:37:25;8.85;;;2.25;;
53714;SDS011;39608;55.630;37.864;2023-04-24T12:42:29;9.32;;;1.92;;
53714;SDS011;39608;55.630;37.864;2023-04-24T12:47:32;4.00;;;2.17;;
53714;SDS011;39608;55.630;37.864;2023-04-24T12:52:35;2.55;;;1.92;;
53714;SDS011;39608;55.630;37.864;2023-04-24T12:57:39;9.75;;;2.20;;
53714;SDS011;39608;55.630;37.864;2023-04-24T13:02:43;8.27;;;2.25;;
53714;SDS011;39608;55.630;37.864;2023-04-24T13:07:45;10.98;;;2.42;;
53714;SDS011;39608;55.630;37.864;2023-04-24T13:12:48;8.73;;;2.33;;
53714;SDS011;39608;55.630;37.864;2023-04-24T13:17:50;7.10;;;1.60;;
53714;SDS011;39608;55.630;37.864;2023-04-24T13:22:53;9.23;;;1.60;;
53714;SDS011;39608;55.630;37.864;2023-04-24T13:27:56;8.10;;;1.80;;
53714;SDS011;39608;55.630;37.864;2023-04-24T13:32:58;6.82;;;2.20;;
53714;SDS011;39608;55.630;37.864;2023-04-24T13:38:00;7.72;;;1.88;;
53714;SDS011;39608;55.630;37.864;2023-04-24T13:43:07;4.85;;;1.73;;
53714;SDS011;39608;55.630;37.864;2023-04-24T13:48:09;6.60;;;1.90;;
53714;SDS011;39608;55.630;37.864;2023-04-24T13:53:11;9.43;;;1.90;;
53714;SDS011;39608;55.630;37.864;2023-04-24T13:58:14;4.55;;;1.80;;
53714;SDS011;39608;55.630;37.864;2023-04-24T14:03:16;11.98;;;1.65;;
53714;SDS011;39608;55.630;37.864;2023-04-24T14:08:19;12.93;;;2.08;;
53714;SDS011;39608;55.630;37.864;2023-04-24T14:13:22;8.93;;;2.00;;
53714;SDS011;39608;55.630;37.864;2023-04-24T14:18:25;9.27;;;1.83;;
53714;SDS011;39608;55.630;37.864;2023-04-24T14:23:29;10.77;;;2.13;;
53714;SDS011;39608;55.630;37.864;2023-04-24T14:28:33;7.72;;;1.88;;
53714;SDS011;39608;55.630;37.864;2023-04-24T14:33:35;8.60;;;2.00;;
53714;SDS011;39608;55.630;37.864;2023-04-24T14:38:37;12.60;;;2.15;;
53714;SDS011;39608;55.630;37.864;2023-04-24T14:43:40;7.35;;;2.30;;
53714;SDS011;39608;55.630;37.864;2023-04-24T14:48:42;9.55;;;2.22;;
53714;SDS011;39608;55.630;37.864;2023-04-24T14:53:44;4.75;;;2.20;;
53714;SDS011;39608;55.630;37.864;2023-04-24T14:58:49;12.07;;;2.22;;
53714;SDS011;39608;55.630;37.864;2023-04-24T15:03:51;13.75;;;2.50;;
53714;SDS011;39608;55.630;37.864;2023-04-24T15:08:53;9.77;;;2.63;;
53714;SDS011;39608;55.630;37.864;2023-04-24T15:13:56;7.25;;;2.53;;
53714;SDS011;39608;55.630;37.864;2023-04-24T15:18:58;9.07;;;2.72;;
53714;SDS011;39608;55.630;37.864;2023-04-24T15:24:00;17.63;;;3.13;;
53714;SDS011;39608;55.630;37.864;2023-04-24T15:29:04;18.15;;;3.05;;
53714;SDS011;39608;55.630;37.864;2023-04-24T15:34:06;8.60;;;2.38;;
53714;SDS011;39608;55.630;37.864;2023-04-24T15:39:10;16.42;;;3.15;;
53714;SDS011;39608;55.630;37.864;2023-04-24T15:44:13;14.02;;;3.30;;
53714;SDS011;39608;55.630;37.864;2023-04-24T15:49:15;12.98;;;3.17;;
53714;SDS011;39608;55.630;37.864;2023-04-24T15:54:18;15.40;;;3.25;;
53714;SDS011;39608;55.630;37.864;2023-04-24T15:59:21;18.15;;;3.70;;
53714;SDS011;39608;55.630;37.864;2023-04-24T16:04:24;24.80;;;4.30;;
53714;SDS011;39608;55.630;37.864;2023-04-24T16:09:26;15.05;;;3.20;;
53714;SDS011;39608;55.630;37.864;2023-04-24T16:14:29;15.48;;;3.38;;
53714;SDS011;39608;55.630;37.864;2023-04-24T16:19:31;13.55;;;3.90;;
53714;SDS011;39608;55.630;37.864;2023-04-24T16:24:34;11.45;;;4.25;;
53714;SDS011;39608;55.630;37.864;2023-04-24T16:29:37;16.20;;;4.00;;
53714;SDS011;39608;55.630;37.864;2023-04-24T16:34:40;14.38;;;4.15;;
53714;SDS011;39608;55.630;37.864;2023-04-24T16:39:42;15.48;;;4.15;;
53714;SDS011;39608;55.630;37.864;2023-04-24T16:44:46;29.08;;;4.05;;
53714;SDS011;39608;55.630;37.864;2023-04-24T16:49:48;19.88;;;4.20;;
53714;SDS011;39608;55.630;37.864;2023-04-24T16:54:50;21.55;;;4.82;;
53714;SDS011;39608;55.630;37.864;2023-04-24T16:59:54;32.28;;;4.70;;
53714;SDS011;39608;55.630;37.864;2023-04-24T17:04:56;27.05;;;5.40;;
53714;SDS011;39608;55.630;37.864;2023-04-24T17:09:58;22.25;;;5.13;;
53714;SDS011;39608;55.630;37.864;2023-04-24T17:15:01;19.75;;;5.00;;
53714;SDS011;39608;55.630;37.864;2023-04-24T17:20:06;19.00;;;4.45;;
53714;SDS011;39608;55.630;37.864;2023-04-24T17:25:12;13.67;;;4.30;;
53714;SDS011;39608;55.630;37.864;2023-04-24T17:30:15;23.00;;;5.55;;
53714;SDS011;39608;55.630;37.864;2023-04-24T17:35:18;12.32;;;4.25;;
53714;SDS011;39608;55.630;37.864;2023-04-24T17:40:20;9.20;;;3.85;;
53714;SDS011;39608;55.630;37.864;2023-04-24T17:45:23;13.38;;;5.15;;
53714;SDS011;39608;55.630;37.864;2023-04-24T17:50:26;13.32;;;4.18;;
53714;SDS011;39608;55.630;37.864;2023-04-24T17:55:28;16.42;;;4.20;;
53714;SDS011;39608;55.630;37.864;2023-04-24T18:00:31;12.45;;;4.35;;
53714;SDS011;39608;55.630;37.864;2023-04-24T18:05:35;10.55;;;3.90;;
53714;SDS011;39608;55.630;37.864;2023-04-24T18:10:38;12.32;;;4.00;;
53714;SDS011;39608;55.630;37.864;2023-04-24T18:15:45;13.05;;;4.18;;
53714;SDS011;39608;55.630;37.864;2023-04-24T18:20:47;9.23;;;4.10;;
53714;SDS011;39608;55.630;37.864;2023-04-24T18:25:49;10.98;;;4.32;;
53714;SDS011;39608;55.630;37.864;2023-04-24T18:30:53;11.85;;;4.07;;
53714;SDS011;39608;55.630;37.864;2023-04-24T18:35:55;8.73;;;4.50;;
53714;SDS011;39608;55.630;37.864;2023-04-24T18:40:57;18.80;;;5.10;;
53714;SDS011;39608;55.630;37.864;2023-04-24T18:46:01;20.70;;;6.18;;
53714;SDS011;39608;55.630;37.864;2023-04-24T18:51:03;23.42;;;6.20;;
53714;SDS011;39608;55.630;37.864;2023-04-24T18:56:05;18.40;;;6.47;;
53714;SDS011;39608;55.630;37.864;2023-04-24T19:01:09;20.52;;;6.15;;
53714;SDS011;39608;55.630;37.864;2023-04-24T19:06:11;25.02;;;6.78;;
53714;SDS011;39608;55.630;37.864;2023-04-24T19:11:13;17.33;;;6.50;;
53714;SDS011;39608;55.630;37.864;2023-04-24T19:16:16;13.73;;;5.72;;
53714;SDS011;39608;55.630;37.864;2023-04-24T19:21:19;14.30;;;5.18;;
53714;SDS011;39608;55.630;37.864;2023-04-24T19:26:21;18.58;;;5.55;;
53714;SDS011;39608;55.630;37.864;2023-04-24T19:31:25;21.05;;;5.60;;
53714;SDS011;39608;55.630;37.864;2023-04-24T19:41:30;19.83;;;5.93;;
53714;SDS011;39608;55.630;37.864;2023-04-24T19:46:33;18.02;;;5.70;;
53714;SDS011;39608;55.630;37.864;2023-04-24T19:51:35;14.90;;;4.90;;
53714;SDS011;39608;55.630;37.864;2023-04-24T19:56:38;16.92;;;5.38;;
53714;SDS011;39608;55.630;37.864;2023-04-24T20:01:41;15.73;;;5.15;;
53714;SDS011;39608;55.630;37.864;2023-04-24T20:06:43;20.10;;;6.22;;
53714;SDS011;39608;55.630;37.864;2023-04-24T20:11:45;12.82;;;5.00;;
53714;SDS011;39608;55.630;37.864;2023-04-24T20:16:51;14.40;;;5.22;;
53714;SDS011;39608;55.630;37.864;2023-04-24T20:21:53;22.02;;;5.70;;
53714;SDS011;39608;55.630;37.864;2023-04-24T20:26:56;14.25;;;5.05;;
53714;SDS011;39608;55.630;37.864;2023-04-24T20:31:59;10.50;;;5.10;;
53714;SDS011;39608;55.630;37.864;2023-04-24T20:37:01;14.15;;;4.57;;
53714;SDS011;39608;55.630;37.864;2023-04-24T20:42:04;19.50;;;4.97;;
53714;SDS011;39608;55.630;37.864;2023-04-24T20:47:08;19.30;;;5.55;;
53714;SDS011;39608;55.630;37.864;2023-04-24T20:52:10;15.98;;;5.03;;
53714;SDS011;39608;55.630;37.864;2023-04-24T20:57:12;18.80;;;5.70;;
53714;SDS011;39608;55.630;37.864;2023-04-24T21:02:16;17.42;;;5.38;;
53714;SDS011;39608;55.630;37.864;2023-04-24T21:07:18;12.50;;;4.97;;
53714;SDS011;39608;55.630;37.864;2023-04-24T21:12:20;9.38;;;4.85;;
53714;SDS011;39608;55.630;37.864;2023-04-24T21:17:24;14.13;;;5.07;;
53714;SDS011;39608;55.630;37.864;2023-04-24T21:22:26;18.27;;;5.03;;
53714;SDS011;39608;55.630;37.864;2023-04-24T21:27:28;12.65;;;5.25;;
53714;SDS011;39608;55.630;37.864;2023-04-24T21:32:32;10.50;;;4.57;;
53714;SDS011;39608;55.630;37.864;2023-04-24T21:37:34;8.98;;;4.80;;
53714;SDS011;39608;55.630;37.864;2023-04-24T21:42:38;8.85;;;4.63;;
53714;SDS011;39608;55.630;37.864;2023-04-24T21:47:42;7.13;;;5.07;;
53714;SDS011;39608;55.630;37.864;2023-04-24T21:52:44;22.63;;;5.38;;
53714;SDS011;39608;55.630;37.864;2023-04-24T21:57:46;15.60;;;4.30;;
53714;SDS011;39608;55.630;37.864;2023-04-24T22:02:49;13.27;;;5.53;;
53714;SDS011;39608;55.630;37.864;2023-04-24T22:07:51;16.75;;;4.82;;
53714;SDS011;39608;55.630;37.864;2023-04-24T22:12:53;18.23;;;5.15;;
53714;SDS011;39608;55.630;37.864;2023-04-24T22:17:56;15.80;;;4.40;;
53714;SDS011;39608;55.630;37.864;2023-04-24T22:23:00;21.35;;;4.65;;
53714;SDS011;39608;55.630;37.864;2023-04-24T22:28:03;23.92;;;5.18;;
53714;SDS011;39608;55.630;37.864;2023-04-24T22:33:06;15.70;;;6.28;;
53714;SDS011;39608;55.630;37.864;2023-04-24T22:38:09;17.15;;;5.57;;
53714;SDS011;39608;55.630;37.864;2023-04-24T22:43:11;15.98;;;5.40;;
53714;SDS011;39608;55.630;37.864;2023-04-24T22:48:15;12.93;;;5.03;;
53714;SDS011;39608;55.630;37.864;2023-04-24T22:53:17;21.40;;;5.18;;
53714;SDS011;39608;55.630;37.864;2023-04-24T22:58:20;21.00;;;4.53;;
53714;SDS011;39608;55.630;37.864;2023-04-24T23:03:24;19.75;;;4.72;;
53714;SDS011;39608;55.630;37.864;2023-04-24T23:08:26;13.70;;;4.38;;
53714;SDS011;39608;55.630;37.864;2023-04-24T23:13:29;10.13;;;4.53;;
53714;SDS011;39608;55.630;37.864;2023-04-24T23:18:33;15.65;;;4.88;;
53714;SDS011;39608;55.630;37.864;2023-04-24T23:23:35;10.13;;;4.40;;
53714;SDS011;39608;55.630;37.864;2023-04-24T23:28:37;13.38;;;4.85;;
53714;SDS011;39608;55.630;37.864;2023-04-24T23:33:41;13.80;;;4.97;;
53714;SDS011;39608;55.630;37.864;2023-04-24T23:38:46;11.23;;;5.43;;
53714;SDS011;39608;55.630;37.864;2023-04-24T23:43:48;9.63;;;4.95;;
53714;SDS011;39608;55.630;37.864;2023-04-24T23:48:52;14.07;;;5.72;;
53714;SDS011;39608;55.630;37.864;2023-04-24T23:53:54;19.92;;;5.90;;
53714;SDS011;39608;55.630;37.864;2023-04-24T23:58:56;18.80;;;6.15;;
